Time,TemperatureF,DewpointF,PressureIn,WindDirection,WindDirectionDegrees,WindSpeedMPH,WindSpeedGustMPH,Humidity,HourlyPrecipIn,Conditions,Clouds,dailyrainin,SoftwareType,DateUTC
2013-06-22 10:00:00,83.0,-99.9,30.09,East,90,9.0,10.0,-999,-99.99,,,-99.99,,2013-06-22 14:00:00,
2013-06-22 12:00:00,83.0,-99.9,30.10,East,80,7.0,8.0,-999,-99.99,,,-99.99,,2013-06-22 16:00:00,
2013-06-22 12:34:00,83.0,-99.9,30.10,East,80,7.0,8.0,-999,-99.99,,,-99.99,,2013-06-22 16:34:00,
2013-06-22 12:43:00,83.0,-99.9,30.10,East,80,7.0,8.0,-999,-99.99,,,-99.99,,2013-06-22 16:43:00,
2013-06-22 12:52:00,83.0,-99.9,30.10,East,80,7.0,8.0,-999,-99.99,,,-99.99,,2013-06-22 16:52:00,
2013-06-22 13:00:00,83.0,-99.9,30.10,ENE,70,8.0,9.0,-999,-99.99,,,-99.99,,2013-06-22 17:00:00,
2013-06-22 13:34:00,83.0,-99.9,30.10,ENE,70,8.0,9.0,-999,-99.99,,,-99.99,,2013-06-22 17:34:00,
2013-06-22 13:43:00,83.0,-99.9,30.10,ENE,70,8.0,9.0,-999,-99.99,,,-99.99,,2013-06-22 17:43:00,
2013-06-22 13:52:00,83.0,-99.9,30.10,ENE,70,8.0,9.0,-999,-99.99,,,-99.99,,2013-06-22 17:52:00,
2013-06-22 15:00:00,83.0,-99.9,30.07,East,90,10.0,12.0,-999,-99.99,,,-99.99,,2013-06-22 19:00:00,
2013-06-22 15:33:00,83.0,-99.9,30.07,East,90,10.0,12.0,-999,-99.99,,,-99.99,,2013-06-22 19:33:00,
2013-06-22 15:43:00,83.0,-99.9,30.07,East,90,10.0,12.0,-999,-99.99,,,-99.99,,2013-06-22 19:43:00,
2013-06-22 15:53:00,83.0,-99.9,30.07,East,90,10.0,12.0,-999,-99.99,,,-99.99,,2013-06-22 19:53:00,
2013-06-22 16:00:00,83.0,-99.9,30.06,East,100,13.0,15.0,-999,-99.99,,,-99.99,,2013-06-22 20:00:00,
2013-06-22 16:34:00,83.0,-99.9,30.06,East,100,13.0,15.0,-999,-99.99,,,-99.99,,2013-06-22 20:34:00,
2013-06-22 16:43:00,83.0,-99.9,30.06,East,100,13.0,15.0,-999,-99.99,,,-99.99,,2013-06-22 20:43:00,
2013-06-22 16:53:00,83.0,-99.9,30.06,East,100,13.0,15.0,-999,-99.99,,,-99.99,,2013-06-22 20:53:00,
2013-06-22 17:00:00,83.0,-99.9,30.06,East,100,12.0,13.0,-999,-99.99,,,-99.99,,2013-06-22 21:00:00,
2013-06-22 17:34:00,83.0,-99.9,30.06,East,100,12.0,13.0,-999,-99.99,,,-99.99,,2013-06-22 21:34:00,
2013-06-22 17:43:00,83.0,-99.9,30.06,East,100,12.0,13.0,-999,-99.99,,,-99.99,,2013-06-22 21:43:00,
2013-06-22 17:53:00,83.0,-99.9,30.06,East,100,12.0,13.0,-999,-99.99,,,-99.99,,2013-06-22 21:53:00,
2013-06-22 19:00:00,84.0,-99.9,30.04,East,100,14.0,15.0,-999,-99.99,,,-99.99,,2013-06-22 23:00:00,
2013-06-22 19:34:00,84.0,-99.9,30.04,East,100,14.0,15.0,-999,-99.99,,,-99.99,,2013-06-22 23:34:00,
2013-06-22 19:43:00,84.0,-99.9,30.04,East,100,14.0,15.0,-999,-99.99,,,-99.99,,2013-06-22 23:43:00,
2013-06-22 19:53:00,84.0,-99.9,30.04,East,100,14.0,15.0,-999,-99.99,,,-99.99,,2013-06-22 23:53:00,
2013-06-22 21:00:00,83.0,-99.9,30.07,ESE,120,13.0,14.0,-999,-99.99,,,-99.99,,2013-06-23 01:00:00,
2013-06-22 21:32:00,83.0,-99.9,30.07,ESE,120,13.0,14.0,-999,-99.99,,,-99.99,,2013-06-23 01:32:00,
2013-06-22 21:42:00,83.0,-99.9,30.07,ESE,120,13.0,14.0,-999,-99.99,,,-99.99,,2013-06-23 01:42:00,
2013-06-22 21:52:00,83.0,-99.9,30.07,ESE,120,13.0,14.0,-999,-99.99,,,-99.99,,2013-06-23 01:52:00,
2013-06-22 22:00:00,83.0,-99.9,30.08,SE,130,15.0,17.0,-999,-99.99,,,-99.99,,2013-06-23 02:00:00,
2013-06-22 22:21:00,83.0,-99.9,30.08,SE,130,15.0,17.0,-999,-99.99,,,-99.99,,2013-06-23 02:21:00,
2013-06-22 22:31:00,83.0,-99.9,30.08,SE,130,15.0,17.0,-999,-99.99,,,-99.99,,2013-06-23 02:31:00,
2013-06-22 22:41:00,83.0,-99.9,30.08,SE,130,15.0,17.0,-999,-99.99,,,-99.99,,2013-06-23 02:41:00,
2013-06-22 22:52:00,83.0,-99.9,30.08,SE,130,15.0,17.0,-999,-99.99,,,-99.99,,2013-06-23 02:52:00,